sensor_id;sensor_type;location;lat;lon;timestamp;temperature;humidity
12726;DHT22;6427;49.754;6.106;2023-09-19T00:00:46;17.00;99.90
12726;DHT22;6427;49.754;6.106;2023-09-19T00:03:14;16.80;99.90
12726;DHT22;6427;49.754;6.106;2023-09-19T00:05:42;16.80;99.90
12726;DHT22;6427;49.754;6.106;2023-09-19T00:08:12;16.70;99.90
12726;DHT22;6427;49.754;6.106;2023-09-19T00:10:43;16.70;99.90
12726;DHT22;6427;49.754;6.106;2023-09-19T00:13:10;16.60;99.90
12726;DHT22;6427;49.754;6.106;2023-09-19T00:15:41;16.60;99.90
12726;DHT22;6427;49.754;6.106;2023-09-19T00:18:08;16.50;99.90
12726;DHT22;6427;49.754;6.106;2023-09-19T00:20:36;16.50;99.90
12726;DHT22;6427;49.754;6.106;2023-09-19T00:23:04;16.50;99.90
12726;DHT22;6427;49.754;6.106;2023-09-19T00:25:33;16.40;99.90
12726;DHT22;6427;49.754;6.106;2023-09-19T00:28:01;16.60;99.90
12726;DHT22;6427;49.754;6.106;2023-09-19T00:30:29;16.60;99.90
12726;DHT22;6427;49.754;6.106;2023-09-19T00:32:56;16.50;99.90
12726;DHT22;6427;49.754;6.106;2023-09-19T00:35:24;16.50;99.90
12726;DHT22;6427;49.754;6.106;2023-09-19T00:37:51;16.40;99.90
12726;DHT22;6427;49.754;6.106;2023-09-19T00:40:19;16.40;99.90
12726;DHT22;6427;49.754;6.106;2023-09-19T00:42:47;16.40;99.90
12726;DHT22;6427;49.754;6.106;2023-09-19T00:45:15;16.40;99.90
12726;DHT22;6427;49.754;6.106;2023-09-19T00:47:46;16.30;99.90
12726;DHT22;6427;49.754;6.106;2023-09-19T00:50:19;16.30;99.90
12726;DHT22;6427;49.754;6.106;2023-09-19T00:52:46;16.20;99.90
12726;DHT22;6427;49.754;6.106;2023-09-19T00:55:14;16.20;99.90
12726;DHT22;6427;49.754;6.106;2023-09-19T00:57:42;16.20;99.90
12726;DHT22;6427;49.754;6.106;2023-09-19T01:00:09;16.20;99.90
12726;DHT22;6427;49.754;6.106;2023-09-19T01:02:40;16.20;99.90
12726;DHT22;6427;49.754;6.106;2023-09-19T01:05:08;16.20;99.90
12726;DHT22;6427;49.754;6.106;2023-09-19T01:07:35;16.40;99.90
12726;DHT22;6427;49.754;6.106;2023-09-19T01:10:03;16.50;99.90
12726;DHT22;6427;49.754;6.106;2023-09-19T01:17:48;16.40;99.90
12726;DHT22;6427;49.754;6.106;2023-09-19T01:23:20;16.30;99.90
12726;DHT22;6427;49.754;6.106;2023-09-19T01:26:04;16.40;99.90
12726;DHT22;6427;49.754;6.106;2023-09-19T01:28:32;16.40;99.90
12726;DHT22;6427;49.754;6.106;2023-09-19T01:30:59;16.70;99.90
12726;DHT22;6427;49.754;6.106;2023-09-19T01:33:27;16.50;99.90
12726;DHT22;6427;49.754;6.106;2023-09-19T01:35:55;16.40;99.90
12726;DHT22;6427;49.754;6.106;2023-09-19T01:38:23;16.40;99.90
12726;DHT22;6427;49.754;6.106;2023-09-19T01:40:54;16.30;99.90
12726;DHT22;6427;49.754;6.106;2023-09-19T01:43:20;16.20;99.90
12726;DHT22;6427;49.754;6.106;2023-09-19T01:45:59;16.20;99.90
12726;DHT22;6427;49.754;6.106;2023-09-19T01:48:46;16.20;99.90
12726;DHT22;6427;49.754;6.106;2023-09-19T01:51:02;16.40;99.90
12726;DHT22;6427;49.754;6.106;2023-09-19T01:53:55;16.40;99.90
12726;DHT22;6427;49.754;6.106;2023-09-19T01:56:23;16.30;99.90
12726;DHT22;6427;49.754;6.106;2023-09-19T01:58:50;16.20;99.90
12726;DHT22;6427;49.754;6.106;2023-09-19T02:01:18;16.20;99.90
12726;DHT22;6427;49.754;6.106;2023-09-19T02:03:46;16.40;99.90
12726;DHT22;6427;49.754;6.106;2023-09-19T02:06:16;16.40;99.90
12726;DHT22;6427;49.754;6.106;2023-09-19T02:08:43;16.40;99.90
12726;DHT22;6427;49.754;6.106;2023-09-19T02:11:11;16.30;99.90
12726;DHT22;6427;49.754;6.106;2023-09-19T02:13:39;16.30;99.90
12726;DHT22;6427;49.754;6.106;2023-09-19T02:16:06;16.20;99.90
12726;DHT22;6427;49.754;6.106;2023-09-19T02:18:34;16.20;99.90
12726;DHT22;6427;49.754;6.106;2023-09-19T02:21:04;16.20;99.90
12726;DHT22;6427;49.754;6.106;2023-09-19T02:23:32;16.10;99.90
12726;DHT22;6427;49.754;6.106;2023-09-19T02:25:59;16.10;99.90
12726;DHT22;6427;49.754;6.106;2023-09-19T02:28:30;16.10;99.90
12726;DHT22;6427;49.754;6.106;2023-09-19T02:30:58;16.10;99.90
12726;DHT22;6427;49.754;6.106;2023-09-19T02:33:25;16.00;99.90
12726;DHT22;6427;49.754;6.106;2023-09-19T02:35:56;16.30;99.90
12726;DHT22;6427;49.754;6.106;2023-09-19T02:38:24;16.40;99.90
12726;DHT22;6427;49.754;6.106;2023-09-19T02:40:51;16.30;99.90
12726;DHT22;6427;49.754;6.106;2023-09-19T02:43:19;16.50;99.90
12726;DHT22;6427;49.754;6.106;2023-09-19T02:45:49;16.30;99.90
12726;DHT22;6427;49.754;6.106;2023-09-19T02:48:22;16.40;99.90
12726;DHT22;6427;49.754;6.106;2023-09-19T02:50:50;16.30;99.90
12726;DHT22;6427;49.754;6.106;2023-09-19T02:53:17;16.20;99.90
12726;DHT22;6427;49.754;6.106;2023-09-19T02:55:48;16.30;99.90
12726;DHT22;6427;49.754;6.106;2023-09-19T02:58:16;16.20;99.90
12726;DHT22;6427;49.754;6.106;2023-09-19T03:00:44;16.00;99.90
12726;DHT22;6427;49.754;6.106;2023-09-19T03:03:14;16.00;99.90
12726;DHT22;6427;49.754;6.106;2023-09-19T03:05:42;16.00;99.90
12726;DHT22;6427;49.754;6.106;2023-09-19T03:08:10;15.80;99.90
12726;DHT22;6427;49.754;6.106;2023-09-19T03:10:38;15.80;99.90
12726;DHT22;6427;49.754;6.106;2023-09-19T03:13:05;15.80;99.90
12726;DHT22;6427;49.754;6.106;2023-09-19T03:15:33;15.80;99.90
12726;DHT22;6427;49.754;6.106;2023-09-19T03:18:01;15.70;99.90
12726;DHT22;6427;49.754;6.106;2023-09-19T03:20:28;15.70;99.90
12726;DHT22;6427;49.754;6.106;2023-09-19T03:22:56;15.70;99.90
12726;DHT22;6427;49.754;6.106;2023-09-19T03:25:23;15.60;99.90
12726;DHT22;6427;49.754;6.106;2023-09-19T03:27:52;15.60;99.90
12726;DHT22;6427;49.754;6.106;2023-09-19T03:30:19;15.60;99.90
12726;DHT22;6427;49.754;6.106;2023-09-19T03:32:47;15.60;99.90
12726;DHT22;6427;49.754;6.106;2023-09-19T03:35:15;15.80;99.90
12726;DHT22;6427;49.754;6.106;2023-09-19T03:37:42;16.10;99.90
12726;DHT22;6427;49.754;6.106;2023-09-19T03:40:10;16.00;99.90
12726;DHT22;6427;49.754;6.106;2023-09-19T03:42:40;15.80;99.90
12726;DHT22;6427;49.754;6.106;2023-09-19T03:45:08;15.80;99.90
12726;DHT22;6427;49.754;6.106;2023-09-19T03:47:35;15.70;99.90
12726;DHT22;6427;49.754;6.106;2023-09-19T03:50:03;15.90;99.90
12726;DHT22;6427;49.754;6.106;2023-09-19T03:52:31;15.70;99.90
12726;DHT22;6427;49.754;6.106;2023-09-19T03:54:59;15.70;99.90
12726;DHT22;6427;49.754;6.106;2023-09-19T03:57:26;15.70;99.90
12726;DHT22;6427;49.754;6.106;2023-09-19T03:59:54;15.80;99.90
12726;DHT22;6427;49.754;6.106;2023-09-19T04:02:22;15.80;99.90
12726;DHT22;6427;49.754;6.106;2023-09-19T04:04:50;15.70;99.90
12726;DHT22;6427;49.754;6.106;2023-09-19T04:07:18;15.80;99.90
12726;DHT22;6427;49.754;6.106;2023-09-19T04:09:45;15.80;99.90
12726;DHT22;6427;49.754;6.106;2023-09-19T04:12:14;15.70;99.90
12726;DHT22;6427;49.754;6.106;2023-09-19T04:14:41;15.60;99.90
12726;DHT22;6427;49.754;6.106;2023-09-19T04:17:09;15.60;99.90
12726;DHT22;6427;49.754;6.106;2023-09-19T04:19:36;15.50;99.90
12726;DHT22;6427;49.754;6.106;2023-09-19T04:22:04;15.50;99.90
12726;DHT22;6427;49.754;6.106;2023-09-19T04:24:32;15.50;99.90
12726;DHT22;6427;49.754;6.106;2023-09-19T04:26:59;15.50;99.90
12726;DHT22;6427;49.754;6.106;2023-09-19T04:29:27;15.50;99.90
12726;DHT22;6427;49.754;6.106;2023-09-19T04:31:55;15.70;99.90
12726;DHT22;6427;49.754;6.106;2023-09-19T04:34:22;15.60;99.90
12726;DHT22;6427;49.754;6.106;2023-09-19T04:36:50;15.70;99.90
12726;DHT22;6427;49.754;6.106;2023-09-19T04:39:18;15.70;99.90
12726;DHT22;6427;49.754;6.106;2023-09-19T04:41:46;15.70;99.90
12726;DHT22;6427;49.754;6.106;2023-09-19T04:44:13;15.80;99.90
12726;DHT22;6427;49.754;6.106;2023-09-19T04:46:41;16.00;99.90
12726;DHT22;6427;49.754;6.106;2023-09-19T04:49:11;15.80;99.90
12726;DHT22;6427;49.754;6.106;2023-09-19T04:51:39;15.70;99.90
12726;DHT22;6427;49.754;6.106;2023-09-19T04:54:07;15.60;99.90
12726;DHT22;6427;49.754;6.106;2023-09-19T04:56:35;15.40;99.90
12726;DHT22;6427;49.754;6.106;2023-09-19T04:59:03;15.40;99.90
12726;DHT22;6427;49.754;6.106;2023-09-19T05:01:31;15.30;99.90
12726;DHT22;6427;49.754;6.106;2023-09-19T05:03:59;15.20;99.90
12726;DHT22;6427;49.754;6.106;2023-09-19T05:06:26;15.20;99.90
12726;DHT22;6427;49.754;6.106;2023-09-19T05:08:54;15.10;99.90
12726;DHT22;6427;49.754;6.106;2023-09-19T05:11:23;15.30;99.90
12726;DHT22;6427;49.754;6.106;2023-09-19T05:13:50;15.30;99.90
12726;DHT22;6427;49.754;6.106;2023-09-19T05:16:19;15.40;99.90
12726;DHT22;6427;49.754;6.106;2023-09-19T05:18:46;15.30;99.90
12726;DHT22;6427;49.754;6.106;2023-09-19T05:21:14;15.50;99.90
12726;DHT22;6427;49.754;6.106;2023-09-19T05:23:41;15.40;99.90
12726;DHT22;6427;49.754;6.106;2023-09-19T05:26:09;15.20;99.90
12726;DHT22;6427;49.754;6.106;2023-09-19T05:28:37;15.10;99.90
12726;DHT22;6427;49.754;6.106;2023-09-19T05:31:05;15.40;99.90
12726;DHT22;6427;49.754;6.106;2023-09-19T05:33:33;15.40;99.90
12726;DHT22;6427;49.754;6.106;2023-09-19T05:36:00;15.30;99.90
12726;DHT22;6427;49.754;6.106;2023-09-19T05:38:28;15.10;99.90
12726;DHT22;6427;49.754;6.106;2023-09-19T05:40:56;14.90;99.90
12726;DHT22;6427;49.754;6.106;2023-09-19T05:43:24;14.90;99.90
12726;DHT22;6427;49.754;6.106;2023-09-19T05:45:51;14.90;99.90
12726;DHT22;6427;49.754;6.106;2023-09-19T05:48:19;15.00;99.90
12726;DHT22;6427;49.754;6.106;2023-09-19T05:50:47;15.00;99.90
12726;DHT22;6427;49.754;6.106;2023-09-19T05:53:14;14.90;99.90
12726;DHT22;6427;49.754;6.106;2023-09-19T05:55:42;14.80;99.90
12726;DHT22;6427;49.754;6.106;2023-09-19T05:58:10;14.70;99.90
12726;DHT22;6427;49.754;6.106;2023-09-19T06:00:38;14.70;99.90
12726;DHT22;6427;49.754;6.106;2023-09-19T06:03:06;14.90;99.90
12726;DHT22;6427;49.754;6.106;2023-09-19T06:05:35;14.90;99.90
12726;DHT22;6427;49.754;6.106;2023-09-19T06:08:02;14.90;99.90
12726;DHT22;6427;49.754;6.106;2023-09-19T06:10:31;14.90;99.90
12726;DHT22;6427;49.754;6.106;2023-09-19T06:12:58;14.90;99.90
12726;DHT22;6427;49.754;6.106;2023-09-19T06:15:26;14.80;99.90
12726;DHT22;6427;49.754;6.106;2023-09-19T06:17:55;15.00;99.90
12726;DHT22;6427;49.754;6.106;2023-09-19T06:20:27;15.00;99.90
12726;DHT22;6427;49.754;6.106;2023-09-19T06:22:52;15.00;99.90
12726;DHT22;6427;49.754;6.106;2023-09-19T06:25:20;14.90;99.90
12726;DHT22;6427;49.754;6.106;2023-09-19T06:27:48;14.90;99.90
12726;DHT22;6427;49.754;6.106;2023-09-19T06:30:15;14.90;99.90
12726;DHT22;6427;49.754;6.106;2023-09-19T06:32:43;14.90;99.90
12726;DHT22;6427;49.754;6.106;2023-09-19T06:35:14;14.90;99.90
12726;DHT22;6427;49.754;6.106;2023-09-19T06:37:41;14.90;99.90
12726;DHT22;6427;49.754;6.106;2023-09-19T06:40:11;14.90;99.90
12726;DHT22;6427;49.754;6.106;2023-09-19T06:42:45;15.00;99.90
12726;DHT22;6427;49.754;6.106;2023-09-19T06:45:12;15.00;99.90
12726;DHT22;6427;49.754;6.106;2023-09-19T06:47:40;15.00;99.90
12726;DHT22;6427;49.754;6.106;2023-09-19T06:50:07;15.00;99.90
12726;DHT22;6427;49.754;6.106;2023-09-19T06:52:35;15.10;99.90
12726;DHT22;6427;49.754;6.106;2023-09-19T06:55:03;15.10;99.90
12726;DHT22;6427;49.754;6.106;2023-09-19T06:57:31;15.10;99.90
12726;DHT22;6427;49.754;6.106;2023-09-19T06:59:58;15.10;99.90
12726;DHT22;6427;49.754;6.106;2023-09-19T07:02:26;15.20;99.90
12726;DHT22;6427;49.754;6.106;2023-09-19T07:04:54;15.20;99.90
12726;DHT22;6427;49.754;6.106;2023-09-19T07:07:21;15.20;99.90
12726;DHT22;6427;49.754;6.106;2023-09-19T07:09:50;15.30;99.90
12726;DHT22;6427;49.754;6.106;2023-09-19T07:12:17;15.30;99.90
12726;DHT22;6427;49.754;6.106;2023-09-19T07:14:45;15.30;99.90
12726;DHT22;6427;49.754;6.106;2023-09-19T07:17:12;15.60;99.90
12726;DHT22;6427;49.754;6.106;2023-09-19T07:19:40;15.60;99.90
12726;DHT22;6427;49.754;6.106;2023-09-19T07:22:07;15.60;99.90
12726;DHT22;6427;49.754;6.106;2023-09-19T07:24:35;15.50;99.90
12726;DHT22;6427;49.754;6.106;2023-09-19T07:27:03;15.50;99.90
12726;DHT22;6427;49.754;6.106;2023-09-19T07:29:30;15.50;99.90
12726;DHT22;6427;49.754;6.106;2023-09-19T07:31:58;15.50;99.90
12726;DHT22;6427;49.754;6.106;2023-09-19T07:34:25;15.50;99.90
12726;DHT22;6427;49.754;6.106;2023-09-19T07:36:54;15.60;99.90
12726;DHT22;6427;49.754;6.106;2023-09-19T07:39:22;15.60;99.90
12726;DHT22;6427;49.754;6.106;2023-09-19T07:41:50;15.70;99.90
12726;DHT22;6427;49.754;6.106;2023-09-19T07:44:17;15.70;99.90
12726;DHT22;6427;49.754;6.106;2023-09-19T07:46:45;15.70;99.90
12726;DHT22;6427;49.754;6.106;2023-09-19T07:49:13;16.00;99.90
12726;DHT22;6427;49.754;6.106;2023-09-19T07:51:41;16.00;99.90
12726;DHT22;6427;49.754;6.106;2023-09-19T07:54:08;15.90;99.90
12726;DHT22;6427;49.754;6.106;2023-09-19T07:56:36;16.00;99.90
12726;DHT22;6427;49.754;6.106;2023-09-19T07:59:04;16.00;99.90
12726;DHT22;6427;49.754;6.106;2023-09-19T08:01:31;16.00;99.90
12726;DHT22;6427;49.754;6.106;2023-09-19T08:03:59;16.00;99.90
12726;DHT22;6427;49.754;6.106;2023-09-19T08:06:26;16.00;99.90
12726;DHT22;6427;49.754;6.106;2023-09-19T08:08:55;16.00;99.90
12726;DHT22;6427;49.754;6.106;2023-09-19T08:11:22;16.00;99.90
12726;DHT22;6427;49.754;6.106;2023-09-19T08:13:51;16.00;99.90
12726;DHT22;6427;49.754;6.106;2023-09-19T08:16:18;16.00;99.90
12726;DHT22;6427;49.754;6.106;2023-09-19T08:18:49;16.10;99.90
12726;DHT22;6427;49.754;6.106;2023-09-19T08:21:17;16.10;99.90
12726;DHT22;6427;49.754;6.106;2023-09-19T08:23:44;16.10;99.90
12726;DHT22;6427;49.754;6.106;2023-09-19T08:26:12;16.10;99.90
12726;DHT22;6427;49.754;6.106;2023-09-19T08:28:39;16.10;99.90
12726;DHT22;6427;49.754;6.106;2023-09-19T08:31:10;16.10;99.90
12726;DHT22;6427;49.754;6.106;2023-09-19T08:33:39;16.20;99.90
12726;DHT22;6427;49.754;6.106;2023-09-19T08:36:06;16.20;99.90
12726;DHT22;6427;49.754;6.106;2023-09-19T08:38:34;16.30;99.90
12726;DHT22;6427;49.754;6.106;2023-09-19T08:41:05;16.30;99.90
12726;DHT22;6427;49.754;6.106;2023-09-19T08:43:29;16.60;99.90
12726;DHT22;6427;49.754;6.106;2023-09-19T08:48:33;16.70;99.90
12726;DHT22;6427;49.754;6.106;2023-09-19T08:51:07;16.70;99.90
12726;DHT22;6427;49.754;6.106;2023-09-19T08:56:14;16.70;99.90
12726;DHT22;6427;49.754;6.106;2023-09-19T08:58:46;16.70;99.90
12726;DHT22;6427;49.754;6.106;2023-09-19T09:01:13;17.00;99.90
12726;DHT22;6427;49.754;6.106;2023-09-19T09:03:40;17.20;99.90
12726;DHT22;6427;49.754;6.106;2023-09-19T09:06:08;17.20;99.90
12726;DHT22;6427;49.754;6.106;2023-09-19T09:08:35;17.20;99.90
12726;DHT22;6427;49.754;6.106;2023-09-19T09:11:02;17.20;99.90
12726;DHT22;6427;49.754;6.106;2023-09-19T09:13:30;17.40;99.90
12726;DHT22;6427;49.754;6.106;2023-09-19T09:15:58;17.60;99.90
12726;DHT22;6427;49.754;6.106;2023-09-19T09:18:28;17.60;99.90
12726;DHT22;6427;49.754;6.106;2023-09-19T09:20:54;17.60;99.90
12726;DHT22;6427;49.754;6.106;2023-09-19T09:23:22;17.60;99.90
12726;DHT22;6427;49.754;6.106;2023-09-19T09:25:53;17.50;99.90
12726;DHT22;6427;49.754;6.106;2023-09-19T09:28:24;17.50;99.90
12726;DHT22;6427;49.754;6.106;2023-09-19T09:30:51;17.70;99.90
12726;DHT22;6427;49.754;6.106;2023-09-19T09:33:19;17.70;99.90
12726;DHT22;6427;49.754;6.106;2023-09-19T09:36:04;17.60;99.90
12726;DHT22;6427;49.754;6.106;2023-09-19T09:38:19;17.60;99.90
12726;DHT22;6427;49.754;6.106;2023-09-19T09:40:50;17.60;99.90
12726;DHT22;6427;49.754;6.106;2023-09-19T09:43:27;17.60;99.90
12726;DHT22;6427;49.754;6.106;2023-09-19T09:45:55;17.60;99.90
12726;DHT22;6427;49.754;6.106;2023-09-19T09:48:18;17.60;99.90
12726;DHT22;6427;49.754;6.106;2023-09-19T09:50:48;17.60;99.90
12726;DHT22;6427;49.754;6.106;2023-09-19T09:53:26;17.90;99.90
12726;DHT22;6427;49.754;6.106;2023-09-19T09:56:05;17.90;99.90
12726;DHT22;6427;49.754;6.106;2023-09-19T09:58:37;18.20;99.90
12726;DHT22;6427;49.754;6.106;2023-09-19T10:01:04;18.20;99.90
12726;DHT22;6427;49.754;6.106;2023-09-19T10:03:38;18.20;99.90
12726;DHT22;6427;49.754;6.106;2023-09-19T10:06:11;18.30;99.90
12726;DHT22;6427;49.754;6.106;2023-09-19T10:09:04;18.30;99.90
12726;DHT22;6427;49.754;6.106;2023-09-19T10:11:48;18.40;99.90
12726;DHT22;6427;49.754;6.106;2023-09-19T10:14:18;18.70;99.90
12726;DHT22;6427;49.754;6.106;2023-09-19T10:16:46;18.90;99.90
12726;DHT22;6427;49.754;6.106;2023-09-19T10:22:05;19.20;99.90
12726;DHT22;6427;49.754;6.106;2023-09-19T10:24:33;19.40;99.90
12726;DHT22;6427;49.754;6.106;2023-09-19T10:27:00;19.30;99.90
12726;DHT22;6427;49.754;6.106;2023-09-19T10:29:29;19.20;99.90
12726;DHT22;6427;49.754;6.106;2023-09-19T10:31:56;19.20;99.90
12726;DHT22;6427;49.754;6.106;2023-09-19T10:34:24;19.20;99.90
12726;DHT22;6427;49.754;6.106;2023-09-19T10:36:52;19.40;99.90
12726;DHT22;6427;49.754;6.106;2023-09-19T10:39:19;19.50;99.90
12726;DHT22;6427;49.754;6.106;2023-09-19T10:41:49;19.50;99.90
12726;DHT22;6427;49.754;6.106;2023-09-19T10:44:15;19.60;99.90
12726;DHT22;6427;49.754;6.106;2023-09-19T10:46:43;19.60;99.90
12726;DHT22;6427;49.754;6.106;2023-09-19T10:49:10;19.60;99.50
12726;DHT22;6427;49.754;6.106;2023-09-19T10:51:39;19.80;98.50
12726;DHT22;6427;49.754;6.106;2023-09-19T10:54:08;19.70;98.50
12726;DHT22;6427;49.754;6.106;2023-09-19T10:56:34;19.60;98.40
12726;DHT22;6427;49.754;6.106;2023-09-19T11:01:45;19.60;98.20
12726;DHT22;6427;49.754;6.106;2023-09-19T11:04:27;19.50;98.00
12726;DHT22;6427;49.754;6.106;2023-09-19T11:07:07;19.50;97.30
12726;DHT22;6427;49.754;6.106;2023-09-19T11:09:55;19.50;97.20
12726;DHT22;6427;49.754;6.106;2023-09-19T11:14:59;19.40;97.10
12726;DHT22;6427;49.754;6.106;2023-09-19T11:17:30;19.40;97.30
12726;DHT22;6427;49.754;6.106;2023-09-19T11:30:37;19.90;96.70
12726;DHT22;6427;49.754;6.106;2023-09-19T11:49:41;20.10;95.10
12726;DHT22;6427;49.754;6.106;2023-09-19T11:51:47;20.20;95.00
12726;DHT22;6427;49.754;6.106;2023-09-19T11:54:15;20.20;94.90
12726;DHT22;6427;49.754;6.106;2023-09-19T11:56:45;20.20;94.60
12726;DHT22;6427;49.754;6.106;2023-09-19T11:59:19;20.50;93.50
12726;DHT22;6427;49.754;6.106;2023-09-19T12:01:42;20.40;93.40
12726;DHT22;6427;49.754;6.106;2023-09-19T12:04:10;20.40;92.90
12726;DHT22;6427;49.754;6.106;2023-09-19T12:06:37;20.50;91.50
12726;DHT22;6427;49.754;6.106;2023-09-19T12:09:05;20.40;91.50
12726;DHT22;6427;49.754;6.106;2023-09-19T12:11:40;20.30;91.50
12726;DHT22;6427;49.754;6.106;2023-09-19T12:14:03;20.30;91.90
12726;DHT22;6427;49.754;6.106;2023-09-19T12:16:30;20.40;92.10
12726;DHT22;6427;49.754;6.106;2023-09-19T12:18:58;20.40;92.10
12726;DHT22;6427;49.754;6.106;2023-09-19T12:21:26;20.50;91.90
12726;DHT22;6427;49.754;6.106;2023-09-19T12:24:06;20.50;91.70
12726;DHT22;6427;49.754;6.106;2023-09-19T12:26:39;20.50;91.80
12726;DHT22;6427;49.754;6.106;2023-09-19T12:29:10;20.70;91.50
12726;DHT22;6427;49.754;6.106;2023-09-19T12:31:34;20.80;90.80
12726;DHT22;6427;49.754;6.106;2023-09-19T12:34:02;20.70;90.30
12726;DHT22;6427;49.754;6.106;2023-09-19T12:36:30;20.80;90.30
12726;DHT22;6427;49.754;6.106;2023-09-19T12:38:58;20.70;90.00
12726;DHT22;6427;49.754;6.106;2023-09-19T12:41:25;20.90;89.20
12726;DHT22;6427;49.754;6.106;2023-09-19T12:43:53;20.90;88.90
12726;DHT22;6427;49.754;6.106;2023-09-19T12:46:21;20.90;90.00
12726;DHT22;6427;49.754;6.106;2023-09-19T12:48:48;21.00;90.40
12726;DHT22;6427;49.754;6.106;2023-09-19T12:51:15;21.10;90.30
12726;DHT22;6427;49.754;6.106;2023-09-19T12:53:43;21.10;90.20
12726;DHT22;6427;49.754;6.106;2023-09-19T12:56:11;21.10;90.10
12726;DHT22;6427;49.754;6.106;2023-09-19T12:58:51;21.00;90.10
12726;DHT22;6427;49.754;6.106;2023-09-19T13:01:19;21.20;89.30
12726;DHT22;6427;49.754;6.106;2023-09-19T13:04:09;21.40;89.30
12726;DHT22;6427;49.754;6.106;2023-09-19T13:06:15;21.40;89.30
12726;DHT22;6427;49.754;6.106;2023-09-19T13:08:42;21.40;88.80
12726;DHT22;6427;49.754;6.106;2023-09-19T13:11:17;21.40;88.10
12726;DHT22;6427;49.754;6.106;2023-09-19T13:17:03;21.30;88.60
12726;DHT22;6427;49.754;6.106;2023-09-19T13:19:43;21.40;87.90
12726;DHT22;6427;49.754;6.106;2023-09-19T13:22:40;21.30;87.80
12726;DHT22;6427;49.754;6.106;2023-09-19T13:25:08;21.10;88.10
12726;DHT22;6427;49.754;6.106;2023-09-19T13:27:35;21.10;89.50
12726;DHT22;6427;49.754;6.106;2023-09-19T13:30:02;21.10;90.00
12726;DHT22;6427;49.754;6.106;2023-09-19T13:32:31;21.20;90.20
12726;DHT22;6427;49.754;6.106;2023-09-19T13:34:58;21.30;90.00
12726;DHT22;6427;49.754;6.106;2023-09-19T13:37:26;21.30;89.50
12726;DHT22;6427;49.754;6.106;2023-09-19T13:39:54;21.30;89.40
12726;DHT22;6427;49.754;6.106;2023-09-19T13:42:21;21.30;89.70
12726;DHT22;6427;49.754;6.106;2023-09-19T13:44:49;21.30;89.40
12726;DHT22;6427;49.754;6.106;2023-09-19T13:47:16;21.30;89.10
12726;DHT22;6427;49.754;6.106;2023-09-19T13:49:44;21.50;87.80
12726;DHT22;6427;49.754;6.106;2023-09-19T13:52:12;21.70;87.00
12726;DHT22;6427;49.754;6.106;2023-09-19T13:54:41;21.70;86.30
12726;DHT22;6427;49.754;6.106;2023-09-19T13:57:08;21.70;86.20
12726;DHT22;6427;49.754;6.106;2023-09-19T13:59:36;21.70;86.80
12726;DHT22;6427;49.754;6.106;2023-09-19T14:02:04;21.70;87.10
12726;DHT22;6427;49.754;6.106;2023-09-19T14:04:31;21.70;87.00
12726;DHT22;6427;49.754;6.106;2023-09-19T14:06:59;21.70;86.10
12726;DHT22;6427;49.754;6.106;2023-09-19T14:09:26;21.70;86.70
12726;DHT22;6427;49.754;6.106;2023-09-19T14:11:54;21.90;86.50
12726;DHT22;6427;49.754;6.106;2023-09-19T14:14:22;22.00;85.90
12726;DHT22;6427;49.754;6.106;2023-09-19T14:16:50;22.00;85.90
12726;DHT22;6427;49.754;6.106;2023-09-19T14:19:18;22.20;85.10
12726;DHT22;6427;49.754;6.106;2023-09-19T14:21:45;22.40;84.20
12726;DHT22;6427;49.754;6.106;2023-09-19T14:24:17;22.30;83.80
12726;DHT22;6427;49.754;6.106;2023-09-19T14:26:45;22.20;83.70
12726;DHT22;6427;49.754;6.106;2023-09-19T14:29:12;22.20;84.10
12726;DHT22;6427;49.754;6.106;2023-09-19T14:31:40;22.20;84.60
12726;DHT22;6427;49.754;6.106;2023-09-19T14:34:08;22.30;83.70
12726;DHT22;6427;49.754;6.106;2023-09-19T14:36:36;22.20;83.60
12726;DHT22;6427;49.754;6.106;2023-09-19T14:39:04;22.20;82.00
12726;DHT22;6427;49.754;6.106;2023-09-19T14:41:31;22.20;82.00
12726;DHT22;6427;49.754;6.106;2023-09-19T14:43:59;22.20;82.20
12726;DHT22;6427;49.754;6.106;2023-09-19T14:46:27;22.20;82.40
12726;DHT22;6427;49.754;6.106;2023-09-19T14:48:55;22.30;82.30
12726;DHT22;6427;49.754;6.106;2023-09-19T14:51:23;22.50;81.50
12726;DHT22;6427;49.754;6.106;2023-09-19T14:53:51;22.40;81.40
12726;DHT22;6427;49.754;6.106;2023-09-19T14:56:19;22.40;81.40
12726;DHT22;6427;49.754;6.106;2023-09-19T14:58:47;22.50;81.90
12726;DHT22;6427;49.754;6.106;2023-09-19T15:01:15;22.50;81.70
12726;DHT22;6427;49.754;6.106;2023-09-19T15:03:43;22.50;81.70
12726;DHT22;6427;49.754;6.106;2023-09-19T15:06:11;22.50;81.60
12726;DHT22;6427;49.754;6.106;2023-09-19T15:08:44;22.60;81.20
12726;DHT22;6427;49.754;6.106;2023-09-19T15:11:11;22.60;81.30
12726;DHT22;6427;49.754;6.106;2023-09-19T15:13:39;22.80;81.70
12726;DHT22;6427;49.754;6.106;2023-09-19T15:16:07;22.80;81.70
12726;DHT22;6427;49.754;6.106;2023-09-19T15:18:37;22.80;81.60
12726;DHT22;6427;49.754;6.106;2023-09-19T15:21:05;22.70;81.60
12726;DHT22;6427;49.754;6.106;2023-09-19T15:23:33;22.60;81.30
12726;DHT22;6427;49.754;6.106;2023-09-19T15:26:00;22.50;81.50
12726;DHT22;6427;49.754;6.106;2023-09-19T15:28:27;22.50;82.30
12726;DHT22;6427;49.754;6.106;2023-09-19T15:31:02;22.40;82.50
12726;DHT22;6427;49.754;6.106;2023-09-19T15:33:29;22.40;82.70
12726;DHT22;6427;49.754;6.106;2023-09-19T15:36:06;22.50;83.10
12726;DHT22;6427;49.754;6.106;2023-09-19T15:38:50;22.50;83.20
12726;DHT22;6427;49.754;6.106;2023-09-19T15:41:01;22.50;82.90
12726;DHT22;6427;49.754;6.106;2023-09-19T15:43:30;22.50;83.80
12726;DHT22;6427;49.754;6.106;2023-09-19T15:46:00;22.50;83.70
12726;DHT22;6427;49.754;6.106;2023-09-19T15:48:25;22.40;84.00
12726;DHT22;6427;49.754;6.106;2023-09-19T15:50:53;22.30;84.80
12726;DHT22;6427;49.754;6.106;2023-09-19T15:53:20;22.30;85.00
12726;DHT22;6427;49.754;6.106;2023-09-19T15:55:49;22.50;84.90
12726;DHT22;6427;49.754;6.106;2023-09-19T15:58:16;22.40;84.80
12726;DHT22;6427;49.754;6.106;2023-09-19T16:00:44;22.50;84.60
12726;DHT22;6427;49.754;6.106;2023-09-19T16:03:12;22.80;83.70
12726;DHT22;6427;49.754;6.106;2023-09-19T16:05:40;22.80;83.70
12726;DHT22;6427;49.754;6.106;2023-09-19T16:08:08;22.90;83.50
12726;DHT22;6427;49.754;6.106;2023-09-19T16:10:36;22.80;84.20
12726;DHT22;6427;49.754;6.106;2023-09-19T16:13:03;22.90;83.10
12726;DHT22;6427;49.754;6.106;2023-09-19T16:15:31;22.80;83.20
12726;DHT22;6427;49.754;6.106;2023-09-19T16:17:59;22.90;83.20
12726;DHT22;6427;49.754;6.106;2023-09-19T16:20:27;22.80;82.60
12726;DHT22;6427;49.754;6.106;2023-09-19T16:22:55;22.60;83.20
12726;DHT22;6427;49.754;6.106;2023-09-19T16:25:23;22.50;83.10
12726;DHT22;6427;49.754;6.106;2023-09-19T16:27:50;22.40;83.60
12726;DHT22;6427;49.754;6.106;2023-09-19T16:30:18;22.20;84.40
12726;DHT22;6427;49.754;6.106;2023-09-19T16:32:46;22.20;85.40
12726;DHT22;6427;49.754;6.106;2023-09-19T16:35:13;22.10;86.00
12726;DHT22;6427;49.754;6.106;2023-09-19T16:37:41;21.90;86.50
12726;DHT22;6427;49.754;6.106;2023-09-19T16:40:09;21.80;87.60
12726;DHT22;6427;49.754;6.106;2023-09-19T16:42:37;21.80;87.60
12726;DHT22;6427;49.754;6.106;2023-09-19T16:45:05;21.70;87.60